Time;durP1;ratioP1;P1;durP2;ratioP2;P2;SDS_P1;SDS_P2;PMS_P1;PMS_P2;Temp;Humidity;BMP_temperature;BMP_pressure;BME280_temperature;BME280_humidity;BME280_pressure;Samples;Min_cycle;Max_cycle;Signal;HPM_P1;HPM_P2
2023/06/23 00:01:52;;;;;;;20.00;10.27;;;;;;;;;;5092039;28;20434;-81
2023/06/23 00:04:19;;;;;;;18.80;10.23;;;;;;;;;;5093814;28;20012;-81
2023/06/23 00:06:45;;;;;;;19.70;10.02;;;;;;;;;;5091974;28;20523;-81
2023/06/23 00:09:14;;;;;;;23.45;10.38;;;;;;;;;;5092104;28;20059;-81
2023/06/23 00:11:44;;;;;;;27.05;10.52;;;;;;;;;;5092311;28;20028;-82
2023/06/23 00:14:11;;;;;;;21.77;10.93;;;;;;;;;;5093100;28;20020;-81
2023/06/23 00:16:37;;;;;;;22.95;10.40;;;;;;;;;;5095923;28;20134;-81
2023/06/23 00:19:04;;;;;;;19.88;10.60;;;;;;;;;;5095956;28;20024;-80
2023/06/23 00:21:30;;;;;;;17.42;10.18;;;;;;;;;;5095849;28;20567;-81
2023/06/23 00:23:56;;;;;;;19.77;11.45;;;;;;;;;;5097206;28;20027;-81
2023/06/23 00:26:23;;;;;;;26.48;11.05;;;;;;;;;;5096986;28;20023;-82
2023/06/23 00:28:50;;;;;;;20.55;10.52;;;;;;;;;;5096206;28;20043;-81
2023/06/23 00:31:16;;;;;;;22.88;12.07;;;;;;;;;;5096194;28;20414;-81
2023/06/23 00:33:43;;;;;;;20.85;10.93;;;;;;;;;;5095766;28;20077;-81
2023/06/23 00:36:09;;;;;;;24.73;11.80;;;;;;;;;;5095268;28;20466;-81
2023/06/23 00:38:35;;;;;;;22.00;11.60;;;;;;;;;;5096982;28;20039;-81
2023/06/23 00:41:02;;;;;;;29.35;11.80;;;;;;;;;;5096816;28;20030;-80
2023/06/23 00:43:31;;;;;;;18.50;11.10;;;;;;;;;;5096553;28;20465;-81
2023/06/23 00:46:07;;;;;;;25.60;10.95;;;;;;;;;;5096872;28;20461;-81
2023/06/23 00:48:33;;;;;;;22.30;10.45;;;;;;;;;;5096431;28;20477;-80
2023/06/23 00:50:59;;;;;;;22.35;11.20;;;;;;;;;;5094275;28;20106;-81
2023/06/23 00:53:26;;;;;;;25.48;11.23;;;;;;;;;;5095984;28;20012;-80
2023/06/23 00:55:52;;;;;;;15.77;10.55;;;;;;;;;;5095564;28;20103;-80
2023/06/23 00:58:18;;;;;;;24.75;11.23;;;;;;;;;;5095944;28;20016;-82
2023/06/23 01:00:45;;;;;;;23.92;11.82;;;;;;;;;;5094548;28;20078;-81
2023/06/23 01:03:12;;;;;;;30.85;11.30;;;;;;;;;;5095860;28;20028;-81
2023/06/23 01:05:39;;;;;;;23.77;10.40;;;;;;;;;;5095964;28;20020;-80
2023/06/23 01:08:12;;;;;;;18.23;11.40;;;;;;;;;;5095651;28;20028;-81
2023/06/23 01:11:00;;;;;;;20.25;12.27;;;;;;;;;;5095251;28;20030;-81
2023/06/23 01:13:45;;;;;;;21.50;11.88;;;;;;;;;;5095128;28;20012;-81
2023/06/23 01:16:15;;;;;;;23.23;11.93;;;;;;;;;;5095269;28;20024;-81
2023/06/23 01:18:54;;;;;;;19.80;12.55;;;;;;;;;;5094350;28;20415;-81
2023/06/23 01:21:31;;;;;;;18.23;11.18;;;;;;;;;;5095687;28;20024;-81
2023/06/23 01:24:16;;;;;;;20.40;11.75;;;;;;;;;;5094358;28;20020;-81
2023/06/23 01:26:57;;;;;;;21.60;11.15;;;;;;;;;;5095342;28;20466;-81
2023/06/23 01:29:31;;;;;;;23.25;12.20;;;;;;;;;;5093635;28;20381;-81
2023/06/23 01:31:57;;;;;;;23.67;11.45;;;;;;;;;;5093832;28;20027;-80
2023/06/23 01:34:26;;;;;;;28.48;11.93;;;;;;;;;;5094044;28;20051;-81
2023/06/23 01:36:57;;;;;;;22.00;12.57;;;;;;;;;;5094705;28;20020;-81
2023/06/23 01:39:25;;;;;;;26.37;12.17;;;;;;;;;;5093648;28;20169;-81
2023/06/23 01:41:57;;;;;;;20.05;12.00;;;;;;;;;;5094157;28;20073;-81
2023/06/23 01:44:24;;;;;;;23.73;11.57;;;;;;;;;;5094921;28;20068;-80
2023/06/23 01:46:56;;;;;;;24.42;12.80;;;;;;;;;;5094758;28;20028;-80
2023/06/23 01:49:25;;;;;;;27.30;13.57;;;;;;;;;;5093653;28;20031;-80
2023/06/23 01:51:52;;;;;;;23.73;12.80;;;;;;;;;;5093364;28;20081;-81
2023/06/23 01:54:19;;;;;;;20.27;12.40;;;;;;;;;;5094755;28;20095;-81
2023/06/23 01:56:46;;;;;;;22.30;11.98;;;;;;;;;;5094791;28;20024;-80
2023/06/23 01:59:12;;;;;;;17.38;11.82;;;;;;;;;;5094843;28;20043;-81
2023/06/23 02:01:40;;;;;;;17.80;12.23;;;;;;;;;;5093152;28;20035;-80
2023/06/23 02:04:07;;;;;;;21.77;12.20;;;;;;;;;;5093942;28;20023;-81
2023/06/23 02:06:35;;;;;;;23.75;12.45;;;;;;;;;;5095113;28;20023;-81
2023/06/23 02:09:02;;;;;;;23.73;11.70;;;;;;;;;;5095157;28;20030;-81
2023/06/23 02:11:28;;;;;;;20.63;12.80;;;;;;;;;;5093849;28;20054;-81
2023/06/23 02:13:56;;;;;;;21.00;11.68;;;;;;;;;;5093051;28;20024;-81
2023/06/23 02:16:23;;;;;;;20.65;12.00;;;;;;;;;;5087047;28;20012;-81
2023/06/23 02:18:54;;;;;;;22.65;12.82;;;;;;;;;;5094305;28;20081;-81
2023/06/23 02:21:21;;;;;;;22.20;11.60;;;;;;;;;;5093001;28;20054;-81
2023/06/23 02:23:48;;;;;;;21.35;12.27;;;;;;;;;;5093913;28;20354;-81
2023/06/23 02:26:14;;;;;;;17.98;12.50;;;;;;;;;;5093061;28;20358;-80
2023/06/23 02:28:41;;;;;;;21.05;12.98;;;;;;;;;;5092033;28;20043;-80
2023/06/23 02:31:08;;;;;;;23.85;12.82;;;;;;;;;;5094113;28;20012;-80
2023/06/23 02:33:34;;;;;;;26.88;13.15;;;;;;;;;;5093942;28;20070;-80
2023/06/23 02:36:01;;;;;;;18.67;11.60;;;;;;;;;;5092525;28;20424;-80
2023/06/23 02:38:30;;;;;;;25.23;13.30;;;;;;;;;;5092208;28;20020;-80
2023/06/23 02:40:57;;;;;;;22.05;12.75;;;;;;;;;;5094162;28;20031;-80
2023/06/23 02:43:31;;;;;;;21.88;13.07;;;;;;;;;;5093152;28;20022;-80
2023/06/23 02:45:59;;;;;;;20.10;11.98;;;;;;;;;;5093377;28;20339;-81
2023/06/23 02:48:31;;;;;;;23.67;12.40;;;;;;;;;;5093415;28;20028;-80
2023/06/23 02:50:58;;;;;;;22.70;12.90;;;;;;;;;;5093900;28;20016;-81
2023/06/23 02:53:26;;;;;;;23.00;12.15;;;;;;;;;;5092658;28;20024;-81
2023/06/23 02:55:57;;;;;;;23.65;12.82;;;;;;;;;;5091928;28;20748;-80
2023/06/23 02:58:26;;;;;;;22.58;13.43;;;;;;;;;;5092307;28;20392;-81
2023/06/23 03:00:52;;;;;;;28.77;12.63;;;;;;;;;;5092936;28;20031;-80
2023/06/23 03:03:18;;;;;;;26.52;13.13;;;;;;;;;;5093961;28;20062;-80
2023/06/23 03:05:45;;;;;;;24.80;14.27;;;;;;;;;;5093277;28;20104;-80
2023/06/23 03:08:11;;;;;;;23.00;13.73;;;;;;;;;;5093166;28;20038;-80
2023/06/23 03:10:37;;;;;;;25.33;13.55;;;;;;;;;;5091590;28;20515;-80
2023/06/23 03:13:03;;;;;;;23.80;11.98;;;;;;;;;;5093176;28;20079;-81
2023/06/23 03:15:30;;;;;;;18.77;11.43;;;;;;;;;;5091929;28;20012;-80
2023/06/23 03:17:58;;;;;;;26.65;12.45;;;;;;;;;;5093269;28;20047;-80
2023/06/23 03:20:27;;;;;;;24.52;13.18;;;;;;;;;;5091969;28;20024;-80
2023/06/23 03:22:55;;;;;;;27.77;13.50;;;;;;;;;;5091907;28;20018;-80
2023/06/23 03:25:28;;;;;;;19.05;11.50;;;;;;;;;;5092118;28;20078;-80
2023/06/23 03:27:56;;;;;;;22.77;11.63;;;;;;;;;;5092869;28;20028;-80
2023/06/23 03:30:30;;;;;;;24.00;12.68;;;;;;;;;;5093006;28;20103;-80
2023/06/23 03:32:58;;;;;;;27.50;12.90;;;;;;;;;;5092184;28;20020;-80
2023/06/23 03:35:29;;;;;;;22.23;12.38;;;;;;;;;;5093440;28;20027;-80
2023/06/23 03:37:59;;;;;;;20.98;13.02;;;;;;;;;;5092976;28;20065;-80
2023/06/23 03:40:26;;;;;;;20.02;12.38;;;;;;;;;;5093339;28;20008;-81
2023/06/23 03:42:59;;;;;;;27.73;12.43;;;;;;;;;;5092930;28;20028;-80
2023/06/23 03:45:26;;;;;;;20.45;12.13;;;;;;;;;;5092710;28;20676;-81
2023/06/23 03:47:56;;;;;;;25.13;13.00;;;;;;;;;;5092480;28;20689;-80
2023/06/23 03:50:25;;;;;;;26.17;13.45;;;;;;;;;;5095295;28;20032;-81
2023/06/23 03:52:51;;;;;;;20.75;13.15;;;;;;;;;;5096735;28;20020;-80
2023/06/23 03:55:20;;;;;;;20.02;12.00;;;;;;;;;;5096946;28;20016;-80
2023/06/23 03:57:49;;;;;;;24.05;12.43;;;;;;;;;;5096774;28;20027;-80
2023/06/23 04:00:16;;;;;;;20.90;12.48;;;;;;;;;;5097295;28;20024;-81
2023/06/23 04:02:44;;;;;;;24.48;12.88;;;;;;;;;;5096097;28;20107;-80
2023/06/23 04:05:13;;;;;;;23.23;13.35;;;;;;;;;;5095985;28;20023;-80
2023/06/23 04:07:40;;;;;;;22.13;13.55;;;;;;;;;;5097526;28;20023;-82
2023/06/23 04:10:08;;;;;;;19.17;13.23;;;;;;;;;;5097295;28;20374;-80
2023/06/23 04:12:34;;;;;;;31.17;15.90;;;;;;;;;;5093577;28;20016;-81
2023/06/23 04:15:01;;;;;;;35.47;15.15;;;;;;;;;;5095030;28;20028;-81
2023/06/23 04:17:29;;;;;;;24.45;13.95;;;;;;;;;;5095522;28;20016;-81
2023/06/23 04:19:56;;;;;;;22.42;13.55;;;;;;;;;;5096452;28;20078;-80
2023/06/23 04:22:22;;;;;;;34.28;15.02;;;;;;;;;;5096845;28;20462;-81
2023/06/23 04:24:49;;;;;;;30.77;13.93;;;;;;;;;;5097085;28;20008;-80
2023/06/23 04:27:16;;;;;;;26.05;12.48;;;;;;;;;;5096639;28;20019;-80
2023/06/23 04:29:45;;;;;;;25.63;13.23;;;;;;;;;;5097062;28;20040;-80
2023/06/23 04:32:13;;;;;;;27.75;12.90;;;;;;;;;;5095230;28;20018;-81
2023/06/23 04:34:39;;;;;;;25.30;12.65;;;;;;;;;;5095834;28;20106;-81
2023/06/23 04:37:24;;;;;;;19.38;13.23;;;;;;;;;;5094826;28;20146;-81
2023/06/23 04:40:02;;;;;;;27.50;12.77;;;;;;;;;;5095962;28;20116;-81
2023/06/23 04:42:34;;;;;;;18.65;11.90;;;;;;;;;;5095741;28;20016;-81
2023/06/23 04:45:01;;;;;;;21.85;11.85;;;;;;;;;;5097084;28;20020;-82
2023/06/23 04:47:31;;;;;;;18.33;12.27;;;;;;;;;;5094881;28;20402;-80
2023/06/23 04:49:59;;;;;;;23.48;13.32;;;;;;;;;;5096621;28;20115;-81
2023/06/23 04:52:26;;;;;;;20.55;11.27;;;;;;;;;;5095100;28;20353;-80
2023/06/23 04:54:54;;;;;;;18.15;12.43;;;;;;;;;;5095942;28;20113;-81
2023/06/23 04:57:21;;;;;;;19.80;13.13;;;;;;;;;;5095324;28;20023;-80
2023/06/23 04:59:53;;;;;;;22.20;12.60;;;;;;;;;;5095278;28;20073;-80
2023/06/23 05:02:21;;;;;;;18.27;12.18;;;;;;;;;;5093634;28;20374;-80
2023/06/23 05:04:48;;;;;;;19.98;12.65;;;;;;;;;;5095177;28;20447;-80
2023/06/23 05:07:16;;;;;;;19.42;11.63;;;;;;;;;;5096335;28;20061;-80
2023/06/23 05:09:45;;;;;;;17.15;11.25;;;;;;;;;;5094896;28;20051;-80
2023/06/23 05:12:12;;;;;;;18.67;12.23;;;;;;;;;;5096126;28;20022;-80
2023/06/23 05:14:40;;;;;;;21.52;11.30;;;;;;;;;;5096259;28;20020;-78
2023/06/23 05:17:08;;;;;;;20.42;11.35;;;;;;;;;;5096482;28;20073;-78
2023/06/23 05:19:35;;;;;;;22.30;11.48;;;;;;;;;;5094884;28;20119;-78
2023/06/23 05:22:02;;;;;;;16.70;11.40;;;;;;;;;;5094439;28;20020;-78
2023/06/23 05:24:28;;;;;;;20.60;11.32;;;;;;;;;;5094994;28;20020;-77
2023/06/23 05:26:59;;;;;;;21.35;11.85;;;;;;;;;;5096024;28;20020;-78
2023/06/23 05:29:25;;;;;;;23.30;11.77;;;;;;;;;;5095738;28;20040;-78
2023/06/23 05:31:53;;;;;;;24.73;11.80;;;;;;;;;;5094713;28;20021;-78
2023/06/23 05:34:21;;;;;;;17.75;11.38;;;;;;;;;;5095809;28;20018;-78
2023/06/23 05:36:48;;;;;;;22.10;12.98;;;;;;;;;;5095580;28;20024;-78
2023/06/23 05:39:17;;;;;;;21.60;11.63;;;;;;;;;;5094482;28;20016;-78
2023/06/23 05:41:43;;;;;;;18.92;10.73;;;;;;;;;;5094454;28;20031;-78
2023/06/23 05:44:10;;;;;;;20.25;11.75;;;;;;;;;;5095385;28;20020;-78
2023/06/23 05:46:38;;;;;;;30.15;12.35;;;;;;;;;;5094386;28;20024;-78
2023/06/23 05:49:11;;;;;;;23.88;12.27;;;;;;;;;;5095415;28;20150;-79
2023/06/23 05:51:39;;;;;;;19.45;12.48;;;;;;;;;;5094017;28;20042;-78
2023/06/23 05:54:09;;;;;;;23.08;12.68;;;;;;;;;;5094398;28;20016;-78
2023/06/23 05:56:45;;;;;;;22.00;12.45;;;;;;;;;;5095390;28;20066;-78
2023/06/23 05:59:23;;;;;;;19.83;12.68;;;;;;;;;;5095451;28;20546;-78
2023/06/23 06:01:51;;;;;;;38.38;12.15;;;;;;;;;;5095362;28;20044;-78
2023/06/23 06:04:17;;;;;;;26.63;12.55;;;;;;;;;;5094711;28;20026;-78
2023/06/23 06:06:45;;;;;;;20.33;12.32;;;;;;;;;;5094949;28;20023;-78
2023/06/23 06:09:12;;;;;;;18.23;11.27;;;;;;;;;;5094805;28;20039;-78
2023/06/23 06:11:39;;;;;;;21.85;11.35;;;;;;;;;;5093527;28;20012;-79
2023/06/23 06:14:07;;;;;;;20.20;11.70;;;;;;;;;;5094398;28;20016;-79
2023/06/23 06:16:37;;;;;;;18.13;11.65;;;;;;;;;;5094938;28;20016;-80
2023/06/23 06:19:04;;;;;;;19.10;11.57;;;;;;;;;;5094418;28;20028;-79
2023/06/23 06:21:32;;;;;;;17.15;11.25;;;;;;;;;;5094727;28;20019;-79
2023/06/23 06:23:59;;;;;;;21.05;12.27;;;;;;;;;;5094937;28;20350;-79
2023/06/23 06:26:25;;;;;;;21.23;11.65;;;;;;;;;;5094597;28;20016;-79
2023/06/23 06:28:54;;;;;;;18.90;12.25;;;;;;;;;;5093066;28;20138;-79
2023/06/23 06:31:21;;;;;;;24.90;11.38;;;;;;;;;;5094525;28;20016;-79
2023/06/23 06:33:49;;;;;;;19.70;11.43;;;;;;;;;;5094548;28;20019;-79
2023/06/23 06:36:15;;;;;;;19.33;11.00;;;;;;;;;;5093546;28;20016;-79
2023/06/23 06:38:42;;;;;;;15.63;11.30;;;;;;;;;;5093075;28;20032;-79
2023/06/23 06:41:08;;;;;;;14.95;10.52;;;;;;;;;;5093426;28;20052;-79
2023/06/23 06:43:34;;;;;;;17.33;10.80;;;;;;;;;;5094936;28;20020;-79
2023/06/23 06:46:01;;;;;;;23.58;10.60;;;;;;;;;;5094200;28;20470;-79
2023/06/23 06:48:27;;;;;;;17.65;10.93;;;;;;;;;;5093011;28;20028;-79
2023/06/23 06:50:54;;;;;;;19.40;10.73;;;;;;;;;;5094500;28;20051;-79
2023/06/23 06:53:21;;;;;;;15.82;10.02;;;;;;;;;;5093902;28;20019;-79
2023/06/23 06:55:47;;;;;;;18.13;10.70;;;;;;;;;;5093113;28;20125;-79
2023/06/23 06:58:14;;;;;;;15.90;10.45;;;;;;;;;;5094359;28;20035;-80
2023/06/23 07:00:41;;;;;;;14.00;9.65;;;;;;;;;;5092665;28;20454;-79
2023/06/23 07:03:07;;;;;;;16.75;9.88;;;;;;;;;;5093196;28;20057;-79
2023/06/23 07:05:34;;;;;;;17.38;10.77;;;;;;;;;;5094020;28;20026;-80
2023/06/23 07:08:00;;;;;;;20.55;11.43;;;;;;;;;;5092420;28;20445;-79
2023/06/23 07:10:26;;;;;;;16.45;10.15;;;;;;;;;;5094506;28;20020;-79
2023/06/23 07:12:52;;;;;;;14.25;10.80;;;;;;;;;;5094120;28;20012;-80
2023/06/23 07:15:18;;;;;;;16.58;10.50;;;;;;;;;;5092650;28;20020;-80
2023/06/23 07:17:44;;;;;;;15.85;10.13;;;;;;;;;;5094026;28;20023;-80
2023/06/23 07:20:11;;;;;;;16.38;11.93;;;;;;;;;;5092807;28;20119;-80
2023/06/23 07:22:37;;;;;;;17.23;11.23;;;;;;;;;;5093398;28;20016;-80
2023/06/23 07:25:03;;;;;;;15.95;9.88;;;;;;;;;;5092497;28;20038;-80
2023/06/23 07:27:29;;;;;;;18.63;10.48;;;;;;;;;;5092082;28;20089;-80
2023/06/23 07:29:56;;;;;;;15.73;10.23;;;;;;;;;;5093711;28;20027;-80
2023/06/23 07:32:22;;;;;;;18.95;10.30;;;;;;;;;;5092290;28;20023;-80
2023/06/23 07:34:48;;;;;;;15.57;9.95;;;;;;;;;;5093346;28;20016;-80
2023/06/23 07:37:15;;;;;;;18.23;10.27;;;;;;;;;;5093964;28;20099;-80
2023/06/23 07:39:41;;;;;;;17.50;10.23;;;;;;;;;;5092506;28;20157;-80
2023/06/23 07:42:07;;;;;;;19.10;10.02;;;;;;;;;;5093756;28;20020;-80
2023/06/23 07:44:33;;;;;;;14.73;9.25;;;;;;;;;;5094126;28;20484;-80
2023/06/23 07:47:00;;;;;;;17.42;10.65;;;;;;;;;;5092476;28;20031;-80
2023/06/23 07:49:26;;;;;;;17.75;10.30;;;;;;;;;;5092016;28;20458;-79
2023/06/23 07:51:53;;;;;;;20.63;12.30;;;;;;;;;;5093832;28;20016;-80
2023/06/23 07:54:19;;;;;;;26.08;13.63;;;;;;;;;;5093547;28;20027;-80
2023/06/23 07:56:45;;;;;;;23.73;12.25;;;;;;;;;;5092076;28;20020;-80
2023/06/23 07:59:11;;;;;;;23.48;11.68;;;;;;;;;;5092424;28;20023;-80
2023/06/23 08:01:37;;;;;;;18.70;11.57;;;;;;;;;;5092436;28;20391;-79
2023/06/23 08:04:03;;;;;;;20.35;12.10;;;;;;;;;;5091953;28;20351;-80
2023/06/23 08:06:29;;;;;;;27.70;12.45;;;;;;;;;;5092355;28;20455;-80
2023/06/23 08:08:56;;;;;;;20.67;12.45;;;;;;;;;;5093366;28;20024;-79
2023/06/23 08:11:22;;;;;;;17.30;12.25;;;;;;;;;;5093182;28;20016;-80
2023/06/23 08:13:50;;;;;;;19.60;11.98;;;;;;;;;;5093566;28;20123;-80
2023/06/23 08:16:16;;;;;;;19.35;12.60;;;;;;;;;;5093122;28;20020;-80
2023/06/23 08:18:42;;;;;;;19.50;11.52;;;;;;;;;;5093130;28;20020;-80
2023/06/23 08:21:10;;;;;;;25.02;11.77;;;;;;;;;;5093481;28;20016;-80
2023/06/23 08:23:36;;;;;;;16.98;11.13;;;;;;;;;;5091884;28;20082;-80
2023/06/23 08:26:02;;;;;;;19.67;11.50;;;;;;;;;;5093469;28;20023;-80
2023/06/23 08:28:28;;;;;;;16.90;11.85;;;;;;;;;;5093275;28;20048;-80
2023/06/23 08:30:55;;;;;;;19.73;11.43;;;;;;;;;;5093163;28;20073;-80
2023/06/23 08:33:21;;;;;;;21.27;11.98;;;;;;;;;;5093399;28;20117;-80
2023/06/23 08:35:47;;;;;;;15.45;10.85;;;;;;;;;;5092594;28;20020;-80
2023/06/23 08:38:14;;;;;;;28.48;11.45;;;;;;;;;;5096419;28;20020;-80
2023/06/23 08:40:41;;;;;;;15.43;11.85;;;;;;;;;;5096955;28;20032;-80
2023/06/23 08:43:10;;;;;;;23.73;14.65;;;;;;;;;;5095556;28;20016;-80
2023/06/23 08:45:41;;;;;;;19.98;11.68;;;;;;;;;;5096589;28;20050;-80
2023/06/23 08:48:09;;;;;;;17.45;11.55;;;;;;;;;;5095398;28;20016;-80
2023/06/23 08:50:35;;;;;;;24.52;11.48;;;;;;;;;;5096863;28;20581;-80
2023/06/23 08:53:02;;;;;;;21.08;12.07;;;;;;;;;;5096392;28;20074;-80
2023/06/23 08:55:29;;;;;;;23.85;12.13;;;;;;;;;;5096562;28;20031;-80
2023/06/23 08:58:00;;;;;;;19.55;11.70;;;;;;;;;;5095325;28;20031;-81
2023/06/23 09:00:26;;;;;;;20.85;12.15;;;;;;;;;;5096462;28;20126;-80
2023/06/23 09:02:52;;;;;;;18.98;11.52;;;;;;;;;;5095157;28;20158;-81
2023/06/23 09:05:19;;;;;;;23.17;12.27;;;;;;;;;;5096233;28;20047;-80
2023/06/23 09:07:45;;;;;;;21.83;12.93;;;;;;;;;;5094794;28;20012;-80
2023/06/23 09:10:12;;;;;;;19.83;11.93;;;;;;;;;;5095963;28;20339;-81
2023/06/23 09:12:42;;;;;;;26.05;12.30;;;;;;;;;;5095882;28;20030;-80
2023/06/23 09:15:09;;;;;;;24.58;13.02;;;;;;;;;;5095069;28;20024;-80
2023/06/23 09:17:36;;;;;;;17.58;10.63;;;;;;;;;;5094988;28;20070;-80
2023/06/23 09:20:03;;;;;;;21.52;11.30;;;;;;;;;;5096134;28;20051;-80
2023/06/23 09:22:31;;;;;;;21.10;10.57;;;;;;;;;;5096534;28;20454;-80
2023/06/23 09:24:57;;;;;;;22.15;11.80;;;;;;;;;;5094825;28;20069;-80
2023/06/23 09:27:39;;;;;;;23.75;12.18;;;;;;;;;;5095382;28;20027;-80
2023/06/23 09:30:05;;;;;;;21.20;11.30;;;;;;;;;;5096201;28;20031;-80
2023/06/23 09:32:33;;;;;;;17.90;11.68;;;;;;;;;;5094744;28;20059;-80
2023/06/23 09:34:59;;;;;;;16.33;11.55;;;;;;;;;;5094291;28;20046;-80
2023/06/23 09:37:25;;;;;;;21.10;11.38;;;;;;;;;;5094598;28;20446;-80
2023/06/23 09:39:55;;;;;;;19.33;10.85;;;;;;;;;;5094554;28;20035;-81
2023/06/23 09:42:24;;;;;;;20.27;11.45;;;;;;;;;;5094247;28;20020;-81
2023/06/23 09:44:50;;;;;;;19.13;10.65;;;;;;;;;;5094462;28;20043;-81
2023/06/23 09:47:18;;;;;;;21.30;11.63;;;;;;;;;;5095499;28;20024;-81
2023/06/23 09:49:48;;;;;;;27.15;10.95;;;;;;;;;;5095330;28;20031;-80
2023/06/23 09:52:16;;;;;;;24.85;11.48;;;;;;;;;;5093990;28;20457;-80
2023/06/23 09:54:42;;;;;;;16.90;11.63;;;;;;;;;;5091842;28;20358;-81
2023/06/23 09:57:18;;;;;;;22.45;11.50;;;;;;;;;;5093192;28;20016;-81
2023/06/23 09:59:45;;;;;;;22.25;12.30;;;;;;;;;;5093448;28;20523;-81
2023/06/23 10:02:30;;;;;;;23.13;11.63;;;;;;;;;;5092825;28;20110;-80
2023/06/23 10:05:00;;;;;;;18.40;10.80;;;;;;;;;;5093726;28;20323;-81
2023/06/23 10:07:27;;;;;;;19.63;11.82;;;;;;;;;;5093962;28;20339;-81
2023/06/23 10:09:57;;;;;;;18.05;10.57;;;;;;;;;;5092448;28;20032;-80
2023/06/23 10:12:27;;;;;;;22.55;10.75;;;;;;;;;;5094540;28;20028;-80
2023/06/23 10:14:54;;;;;;;19.90;10.68;;;;;;;;;;5093121;28;20484;-80
2023/06/23 10:17:20;;;;;;;19.50;10.27;;;;;;;;;;5092849;28;20070;-81
2023/06/23 10:19:50;;;;;;;22.83;10.20;;;;;;;;;;5094015;28;20027;-80
2023/06/23 10:22:18;;;;;;;17.15;10.55;;;;;;;;;;5093079;28;20020;-81
2023/06/23 10:24:48;;;;;;;18.15;11.23;;;;;;;;;;5093426;28;20030;-80
2023/06/23 10:27:22;;;;;;;20.80;11.37;;;;;;;;;;5094909;28;20454;-81
2023/06/23 10:29:52;;;;;;;18.52;10.63;;;;;;;;;;5092712;28;20048;-80
2023/06/23 10:32:21;;;;;;;21.35;9.75;;;;;;;;;;5093870;28;20074;-81
2023/06/23 10:34:49;;;;;;;26.40;11.68;;;;;;;;;;5093282;28;20016;-81
2023/06/23 10:37:19;;;;;;;20.02;10.88;;;;;;;;;;5094597;28;20397;-82
2023/06/23 10:39:47;;;;;;;15.32;10.10;;;;;;;;;;5093474;28;20111;-79
2023/06/23 10:42:14;;;;;;;23.13;10.35;;;;;;;;;;5093265;28;20027;-79
2023/06/23 10:44:41;;;;;;;24.20;10.18;;;;;;;;;;5093880;28;20362;-81
2023/06/23 10:47:08;;;;;;;20.67;9.95;;;;;;;;;;5094370;28;20069;-80
2023/06/23 10:49:35;;;;;;;17.48;9.60;;;;;;;;;;5094336;28;20454;-80
2023/06/23 10:52:01;;;;;;;18.92;9.98;;;;;;;;;;5092790;28;20034;-79
2023/06/23 10:54:29;;;;;;;29.02;11.07;;;;;;;;;;5093027;28;20347;-80
2023/06/23 10:56:55;;;;;;;15.93;10.13;;;;;;;;;;5094215;28;20023;-81
2023/06/23 10:59:30;;;;;;;17.63;10.20;;;;;;;;;;5093514;28;20153;-81
2023/06/23 11:02:07;;;;;;;21.55;10.18;;;;;;;;;;5093189;28;20021;-81
2023/06/23 11:04:41;;;;;;;21.08;10.70;;;;;;;;;;5091246;28;20279;-81
2023/06/23 11:07:12;;;;;;;15.95;9.43;;;;;;;;;;5092729;28;20022;-81
2023/06/23 11:09:54;;;;;;;18.23;9.98;;;;;;;;;;5092857;28;20030;-81
2023/06/23 11:12:32;;;;;;;19.58;9.93;;;;;;;;;;5109588;28;20110;-81
2023/06/23 11:15:04;;;;;;;19.42;10.15;;;;;;;;;;5094055;28;20008;-81
2023/06/23 11:17:39;;;;;;;19.73;10.60;;;;;;;;;;5093976;28;20020;-81
2023/06/23 11:20:06;;;;;;;17.40;9.18;;;;;;;;;;5089797;28;20375;-81
2023/06/23 11:22:32;;;;;;;15.48;9.95;;;;;;;;;;5077362;28;20012;-81
2023/06/23 11:25:04;;;;;;;18.45;9.40;;;;;;;;;;5093527;28;20042;-81
2023/06/23 11:27:30;;;;;;;16.50;9.45;;;;;;;;;;5093249;28;20016;-81
2023/06/23 11:30:16;;;;;;;20.20;10.60;;;;;;;;;;5093753;28;20020;-81
2023/06/23 11:32:42;;;;;;;18.90;9.02;;;;;;;;;;5092089;28;20107;-81
2023/06/23 11:35:09;;;;;;;16.50;8.65;;;;;;;;;;5093444;28;20413;-82
2023/06/23 11:37:38;;;;;;;18.15;9.23;;;;;;;;;;5092413;28;20462;-81
2023/06/23 11:40:08;;;;;;;20.60;9.30;;;;;;;;;;5093261;28;20113;-82
2023/06/23 11:42:35;;;;;;;18.35;9.15;;;;;;;;;;5093737;28;20020;-82
2023/06/23 11:45:01;;;;;;;16.58;9.48;;;;;;;;;;5092323;28;20028;-81
2023/06/23 11:47:28;;;;;;;22.40;8.95;;;;;;;;;;5093194;28;20024;-81
2023/06/23 11:49:54;;;;;;;20.50;8.82;;;;;;;;;;5093707;28;20098;-81
2023/06/23 11:52:21;;;;;;;19.58;9.45;;;;;;;;;;5093820;28;20028;-81
2023/06/23 11:54:53;;;;;;;23.60;10.07;;;;;;;;;;5093121;28;20089;-81
2023/06/23 11:57:20;;;;;;;23.25;8.48;;;;;;;;;;5093543;28;20020;-81
2023/06/23 11:59:46;;;;;;;21.45;8.05;;;;;;;;;;5093525;28;20073;-82
2023/06/23 12:02:14;;;;;;;23.00;9.07;;;;;;;;;;5093197;28;20016;-81
2023/06/23 12:04:41;;;;;;;16.70;7.75;;;;;;;;;;5093115;28;20384;-81
2023/06/23 12:07:08;;;;;;;20.33;8.10;;;;;;;;;;5091809;28;20016;-82
2023/06/23 12:09:38;;;;;;;18.00;8.43;;;;;;;;;;5093170;28;20102;-80
2023/06/23 12:12:04;;;;;;;20.75;7.80;;;;;;;;;;5096250;28;20099;-81
2023/06/23 12:14:33;;;;;;;18.55;8.02;;;;;;;;;;5097182;28;20030;-81
2023/06/23 12:17:07;;;;;;;20.20;8.25;;;;;;;;;;5095679;28;20076;-81
2023/06/23 12:19:33;;;;;;;22.65;8.77;;;;;;;;;;5097121;28;20115;-81
2023/06/23 12:22:00;;;;;;;19.08;7.65;;;;;;;;;;5096850;28;20016;-81
2023/06/23 12:24:30;;;;;;;16.48;8.13;;;;;;;;;;5095835;28;20047;-81
2023/06/23 12:26:57;;;;;;;15.27;9.40;;;;;;;;;;5095655;28;20023;-81
2023/06/23 12:29:23;;;;;;;18.83;8.80;;;;;;;;;;5096254;28;20466;-81
2023/06/23 12:31:53;;;;;;;16.33;8.52;;;;;;;;;;5096712;28;20016;-81
2023/06/23 12:34:19;;;;;;;12.48;8.73;;;;;;;;;;5096713;28;20012;-80
2023/06/23 12:36:47;;;;;;;18.92;9.25;;;;;;;;;;5095235;28;20016;-81
2023/06/23 12:39:15;;;;;;;23.98;9.23;;;;;;;;;;5112308;28;20128;-81
2023/06/23 12:41:41;;;;;;;16.23;8.85;;;;;;;;;;5096553;28;20012;-81
2023/06/23 12:44:09;;;;;;;23.75;9.05;;;;;;;;;;5095122;28;20027;-81
2023/06/23 12:46:35;;;;;;;15.73;8.50;;;;;;;;;;5096368;28;20012;-81
2023/06/23 12:49:01;;;;;;;21.48;8.20;;;;;;;;;;5096197;28;20099;-81
2023/06/23 12:51:32;;;;;;;21.00;8.65;;;;;;;;;;5095509;28;20024;-81
2023/06/23 12:54:00;;;;;;;18.27;8.35;;;;;;;;;;5094628;28;20024;-81
2023/06/23 12:56:26;;;;;;;20.95;8.48;;;;;;;;;;5095434;28;20016;-82
2023/06/23 12:58:52;;;;;;;22.88;8.88;;;;;;;;;;5094898;28;20370;-82
2023/06/23 13:01:18;;;;;;;13.93;8.07;;;;;;;;;;5111762;28;20107;-83
2023/06/23 13:03:46;;;;;;;21.27;9.30;;;;;;;;;;5111746;28;20416;-82
2023/06/23 13:06:12;;;;;;;17.15;8.35;;;;;;;;;;5096641;28;20099;-81
2023/06/23 13:08:38;;;;;;;17.52;7.55;;;;;;;;;;5095050;28;20028;-82
2023/06/23 13:11:04;;;;;;;16.15;7.68;;;;;;;;;;5094674;28;20114;-81
2023/06/23 13:13:30;;;;;;;19.25;7.50;;;;;;;;;;5094557;28;20020;-82
2023/06/23 13:15:56;;;;;;;20.77;6.90;;;;;;;;;;5094828;28;20114;-81
2023/06/23 13:18:22;;;;;;;25.08;7.50;;;;;;;;;;5095407;28;20078;-81
2023/06/23 13:20:49;;;;;;;22.58;7.82;;;;;;;;;;5094003;28;20016;-80
2023/06/23 13:23:15;;;;;;;19.15;8.20;;;;;;;;;;5094027;28;20021;-80
2023/06/23 13:25:41;;;;;;;23.02;8.38;;;;;;;;;;5110529;28;20057;-81
2023/06/23 13:28:07;;;;;;;24.15;8.25;;;;;;;;;;5095091;28;20497;-81
2023/06/23 13:30:33;;;;;;;23.35;7.60;;;;;;;;;;5093924;28;20300;-80
2023/06/23 13:32:59;;;;;;;16.58;7.18;;;;;;;;;;5094935;28;20012;-80
2023/06/23 13:35:26;;;;;;;23.10;7.25;;;;;;;;;;5094947;28;20032;-80
2023/06/23 13:37:55;;;;;;;21.70;7.22;;;;;;;;;;5095083;28;20016;-81
2023/06/23 13:40:22;;;;;;;20.23;7.18;;;;;;;;;;5093502;28;20024;-80
2023/06/23 13:42:48;;;;;;;12.85;7.25;;;;;;;;;;5095182;28;20476;-80
2023/06/23 13:45:14;;;;;;;18.02;7.43;;;;;;;;;;5110589;28;20050;-80
2023/06/23 13:47:41;;;;;;;15.80;6.63;;;;;;;;;;5110242;28;20106;-80
2023/06/23 13:50:11;;;;;;;18.45;6.55;;;;;;;;;;5094525;28;20044;-80
2023/06/23 13:52:40;;;;;;;14.70;6.88;;;;;;;;;;5094230;28;20081;-80
2023/06/23 13:55:08;;;;;;;19.48;6.60;;;;;;;;;;5094440;28;20020;-80
2023/06/23 13:57:34;;;;;;;10.52;6.35;;;;;;;;;;5094701;28;20023;-80
2023/06/23 14:00:00;;;;;;;16.45;6.68;;;;;;;;;;5092781;28;20481;-80
2023/06/23 14:02:28;;;;;;;16.20;6.47;;;;;;;;;;5109658;28;20023;-81
2023/06/23 14:04:55;;;;;;;21.83;6.50;;;;;;;;;;5095460;28;20450;-81
2023/06/23 14:07:21;;;;;;;17.13;6.63;;;;;;;;;;5093344;28;20027;-80
2023/06/23 14:09:47;;;;;;;15.35;6.00;;;;;;;;;;5111206;28;20073;-80
2023/06/23 14:12:13;;;;;;;16.00;6.90;;;;;;;;;;5110973;28;20143;-80
2023/06/23 14:14:39;;;;;;;14.38;6.13;;;;;;;;;;5094582;28;20016;-80
2023/06/23 14:17:06;;;;;;;21.90;6.57;;;;;;;;;;5095130;28;20016;-80
2023/06/23 14:19:32;;;;;;;15.27;6.43;;;;;;;;;;5094955;28;20065;-81
2023/06/23 14:21:58;;;;;;;23.75;7.72;;;;;;;;;;5094670;28;20036;-79
2023/06/23 14:24:25;;;;;;;14.90;6.97;;;;;;;;;;5095059;28;20020;-80
2023/06/23 14:26:51;;;;;;;11.82;5.90;;;;;;;;;;5094639;28;20024;-80